Orlando, FL (32829)

10:22 PM EDT on October 01, 2014 (GMT -0400)
Nova Preserve | Change Station
CLOSE
Current Station
Personal Weather Station
Location: Orlando, FL
Elevation: 85 ft
Nearby Weather Stations

Elev 85 ft 28.43 °N, 81.25 °W | Updated 2 seconds ago

Partly Cloudy
Partly Cloudy
76.1 °F
Feels Like 76 °F
N
0.0
Wind Variable Wind from NW
Gusts 1.0 mph

Today
High -- | Low -- °F
--% Chance of Precip.
Yesterday
High -- | Low -- °F
Precip. -- in
7:17 AM 7:10 PM
First Quarter, 53% visible
Pressure 29.98 in
Visibility 10.0 miles
Clouds Scattered Clouds 3900 ft
Heat Index 76 °F
Dew Point 74 °F
Humidity 94%
Rainfall 0.29 in
Snow Depth Not available.
UV 0 out of 12
Pollen 6.70 out of 12
Ozone Good
PM2.5 Good
Flu Activity Not available.
METAR KMCO 020153Z 36003KT 10SM SCT039 24/23 A2998 RMK AO2 SLP151 T02440233

More Conditions Fewer Conditions

Pressure 29.98 in
Visibility 10.0 miles
Clouds Scattered Clouds 3900 ft
Heat Index 76 °F
Dew Point 74 °F
Humidity 94%
Rainfall 0.29 in
Snow Depth Not available.
UV 0 out of 12
Pollen 6.70 out of 12
Ozone Good
PM2.5 Good
Flu Activity Not available.
METAR KMCO 020153Z 36003KT 10SM SCT039 24/23 A2998 RMK AO2 SLP151 T02440233

More Conditions Fewer Conditions

10-Day Weather Forecast

Almanac

Astronomy

Oct. 01, 2014 Rise Set
Actual Time 7:17 AM EDT 7:10 PM EDT
Civil Twilight 6:54 AM EDT 7:34 PM EDT
Nautical Twilight 6:27 AM EDT 8:01 PM EDT
Astronomical Twilight 5:59 AM EDT 8:28 PM EDT
Moon 1:57 PM EDT (10/1) 12:02 AM EDT (10/1)
Length of Visible Light 12h 39m
Length of Day
11h 52m
Tomorrow will be 1m 40s shorter.
First Quarter, 53% of the Moon is Illuminated
Today
First Quarter
Oct 8
Full
Oct 15
Last Quarter
Oct 23
New
Oct 30
First Quarter

Today's Extremes

State Highs State Lows

Community

WunderPhotos

Upload Photos

1,758,142 photos uploaded!

WunderBlogs® & News

Nearby

Air Quality

  Air Quality AQ Index Pollutant
Yesterday Good
PM2.5
Yesterday Good
OZONE
Current Good
PM2.5
Current Good
OZONE
Wednesday Good
PM2.5
Thursday Good
PM2.5

Snow Depth

Station Depth Elevation
No new snow has been reported.

Earthquake Activity

City Distance Mag. Time & Date
No recent earthquake activity has been reported nearby.
Minimum magnitude displayed is 2.5.

Coastal Water Temperatures

Place Temperature
Trident Pier, FL 84.0 °F
Fort Myers, FL 87.1 °F
Lake Worth, FL 84.9 °F

Nearby Weather Stations